Time;durP1;ratioP1;P1;durP2;ratioP2;P2;SDS_P1;SDS_P2;PMS_P1;PMS_P2;Temp;Humidity;BMP_temperature;BMP_pressure;BME280_temperature;BME280_humidity;BME280_pressure;Samples;Min_cycle;Max_cycle;Signal;HPM_P1;HPM_P2
2021/03/27 00:00:35;;;;;;;;;;;;;;;8.09;71.59;101483.59;5049352;28;19924;-73
2021/03/27 00:03:20;;;;;;;;;;;;;;;8.42;70.31;101485.72;5038607;28;19924;-74
2021/03/27 00:05:54;;;;;;;;;;;;;;;7.83;71.88;101479.25;5054403;28;19936;-75
2021/03/27 00:08:44;;;;;;;;;;;;;;;7.74;71.73;101495.44;5038348;28;19928;-74
2021/03/27 00:11:20;;;;;;;;;;;;;;;7.68;72.57;101480.13;5008912;28;19926;-75
2021/03/27 00:13:56;;;;;;;;;;;;;;;7.65;72.31;101490.81;4994837;28;19925;-75
2021/03/27 00:16:35;;;;;;;;;;;;;;;7.72;72.06;101486.69;4994539;28;19925;-74
2021/03/27 00:19:07;;;;;;;;;;;;;;;7.75;71.75;101482.56;4994008;28;19933;-75
2021/03/27 00:21:36;;;;;;;;;;;;;;;7.67;71.59;101485.88;4994175;28;19936;-74
2021/03/27 00:24:22;;;;;;;;;;;;;;;7.73;72.02;101501.22;4989973;28;20301;-75
2021/03/27 00:26:51;;;;;;;;;;;;;;;7.63;71.62;101490.25;4973299;28;19937;-74
2021/03/27 00:29:22;;;;;;;;;;;;;;;7.84;71.53;101497.38;4958582;28;19941;-73
2021/03/27 00:32:19;;;;;;;;;;;;;;;8.14;69.57;101499.25;4989769;28;20476;-73
2021/03/27 00:34:54;;;;;;;;;;;;;;;7.83;70.31;101501.19;4952162;29;19949;-75
2021/03/27 00:37:23;;;;;;;;;;;;;;;7.76;70.15;101508.88;4952243;29;19930;-74
2021/03/27 00:40:10;;;;;;;;;;;;;;;7.73;70.87;101510.28;4936042;29;19933;-75
2021/03/27 00:42:38;;;;;;;;;;;;;;;7.65;70.53;101523.72;4951769;29;19926;-76
2021/03/27 00:45:25;;;;;;;;;;;;;;;7.74;70.44;101516.59;4936295;29;19933;-74
2021/03/27 00:47:54;;;;;;;;;;;;;;;7.79;70.19;101527.56;4948337;29;19930;-75
2021/03/27 00:50:37;;;;;;;;;;;;;;;7.87;70.08;101530.56;4920539;29;19926;-75
2021/03/27 00:53:25;;;;;;;;;;;;;;;7.95;68.94;101527.25;4919168;29;20291;-74
2021/03/27 00:56:11;;;;;;;;;;;;;;;7.69;69.94;101535.75;4935858;29;19934;-75
2021/03/27 00:58:44;;;;;;;;;;;;;;;7.62;70.55;101546.19;4963895;28;19947;-75
2021/03/27 01:01:19;;;;;;;;;;;;;;;7.74;69.78;101546.75;4973977;28;19930;-74
2021/03/27 01:04:21;;;;;;;;;;;;;;;7.83;69.63;101547.81;4921693;29;19950;-76
2021/03/27 01:07:10;;;;;;;;;;;;;;;7.94;69.14;101549.47;4932970;29;20028;-74
2021/03/27 01:10:07;;;;;;;;;;;;;;;7.73;69.55;101553.31;4913318;29;19934;-74
2021/03/27 01:12:54;;;;;;;;;;;;;;;7.64;69.55;101552.22;4922696;29;19933;-74
2021/03/27 01:15:26;;;;;;;;;;;;;;;7.65;69.47;101548.41;4920434;29;19938;-74
2021/03/27 01:18:08;;;;;;;;;;;;;;;7.60;69.41;101553.88;4907120;29;19927;-74
2021/03/27 01:20:39;;;;;;;;;;;;;;;7.75;69.31;101545.66;4935961;29;20406;-75
2021/03/27 01:23:10;;;;;;;;;;;;;;;7.51;69.87;101550.84;4925201;29;20437;-75
2021/03/27 01:25:37;;;;;;;;;;;;;;;7.81;69.31;101548.09;4924471;29;19927;-74
2021/03/27 01:28:07;;;;;;;;;;;;;;;7.77;68.63;101554.41;4948453;28;19926;-75
2021/03/27 01:30:39;;;;;;;;;;;;;;;7.71;68.75;101561.81;4967485;29;19926;-73
2021/03/27 01:33:11;;;;;;;;;;;;;;;7.72;69.55;101570.88;4953035;28;19933;-75
2021/03/27 01:35:38;;;;;;;;;;;;;;;7.64;69.51;101568.66;4946445;29;19927;-74
2021/03/27 01:38:10;;;;;;;;;;;;;;;7.68;68.49;101569.78;4958625;28;19934;-76
2021/03/27 01:40:37;;;;;;;;;;;;;;;7.71;68.55;101572.78;4985312;28;19949;-73
2021/03/27 01:43:13;;;;;;;;;;;;;;;7.75;68.46;101573.91;4996781;28;19934;-76
2021/03/27 01:45:43;;;;;;;;;;;;;;;7.46;69.40;101580.97;5015708;28;19929;-74
2021/03/27 01:48:29;;;;;;;;;;;;;;;7.41;69.50;101582.91;5035635;28;19933;-74
2021/03/27 01:50:59;;;;;;;;;;;;;;;7.44;69.69;101591.41;5034452;28;19925;-74
2021/03/27 01:53:32;;;;;;;;;;;;;;;7.51;69.05;101591.97;5033921;28;19925;-75
2021/03/27 01:56:19;;;;;;;;;;;;;;;7.43;70.05;101591.66;5035694;28;19940;-74
2021/03/27 01:58:45;;;;;;;;;;;;;;;7.52;69.52;101584.56;5047997;28;19932;-74
2021/03/27 02:01:21;;;;;;;;;;;;;;;7.50;69.07;101594.97;5047051;28;19926;-74
2021/03/27 02:03:51;;;;;;;;;;;;;;;7.35;68.82;101606.75;5017157;28;19925;-74
2021/03/27 02:06:20;;;;;;;;;;;;;;;7.15;70.67;101601.19;5017097;28;20408;-74
2021/03/27 02:09:09;;;;;;;;;;;;;;;7.04;69.90;101605.00;5017409;28;20372;-73
2021/03/27 02:11:45;;;;;;;;;;;;;;;7.07;70.57;101611.84;5017501;28;19929;-75
2021/03/27 02:14:14;;;;;;;;;;;;;;;7.07;70.38;101611.84;5034695;28;19931;-74
2021/03/27 02:16:43;;;;;;;;;;;;;;;7.13;70.02;101616.25;5034989;28;20392;-76
2021/03/27 02:19:09;;;;;;;;;;;;;;;7.08;69.58;101614.31;5017604;28;19929;-75
2021/03/27 02:21:41;;;;;;;;;;;;;;;7.11;69.99;101613.78;5041598;28;19932;-75
2021/03/27 02:24:26;;;;;;;;;;;;;;;7.13;69.43;101616.25;5052149;28;19969;-73
2021/03/27 02:26:56;;;;;;;;;;;;;;;7.09;69.62;101621.44;5052777;28;20415;-73
2021/03/27 02:29:29;;;;;;;;;;;;;;;7.19;69.52;101621.47;5054462;28;20400;-75
2021/03/27 02:32:01;;;;;;;;;;;;;;;7.33;69.08;101633.59;5055005;28;19936;-74
2021/03/27 02:34:40;;;;;;;;;;;;;;;7.43;68.54;101632.78;5055455;28;19932;-75
2021/03/27 02:37:27;;;;;;;;;;;;;;;7.11;69.48;101632.13;5036955;28;19924;-76
2021/03/27 02:40:22;;;;;;;;;;;;;;;7.08;69.45;101633.47;5054639;28;19929;-76
2021/03/27 02:43:02;;;;;;;;;;;;;;;6.75;70.38;101640.19;5045329;28;19929;-75
2021/03/27 02:45:29;;;;;;;;;;;;;;;7.00;70.25;101641.41;5036210;28;19952;-75
2021/03/27 02:47:59;;;;;;;;;;;;;;;7.05;69.93;101642.25;5053090;28;19924;-74
2021/03/27 02:50:44;;;;;;;;;;;;;;;7.09;70.13;101645.28;5053137;28;19925;-74
2021/03/27 02:53:14;;;;;;;;;;;;;;;6.88;70.47;101652.56;5052602;28;19925;-75
2021/03/27 02:55:43;;;;;;;;;;;;;;;6.92;69.69;101653.69;5052256;28;19925;-74
2021/03/27 02:58:25;;;;;;;;;;;;;;;7.05;70.07;101647.72;5052168;28;19925;-75
2021/03/27 03:01:02;;;;;;;;;;;;;;;7.03;70.38;101646.31;5036442;28;19932;-74
2021/03/27 03:03:42;;;;;;;;;;;;;;;7.11;69.78;101648.56;5052351;28;19929;-76
2021/03/27 03:06:35;;;;;;;;;;;;;;;6.94;70.24;101658.91;5018801;28;19959;-74
2021/03/27 03:09:06;;;;;;;;;;;;;;;6.81;70.01;101657.47;5030827;28;20288;-74
2021/03/27 03:11:36;;;;;;;;;;;;;;;7.01;69.83;101654.81;5052261;28;20297;-74
2021/03/27 03:14:16;;;;;;;;;;;;;;;7.35;69.88;101667.03;5053790;28;19932;-75
2021/03/27 03:16:46;;;;;;;;;;;;;;;6.97;69.27;101670.16;5036122;28;20376;-75
2021/03/27 03:19:19;;;;;;;;;;;;;;;6.81;69.58;101671.16;5051141;28;19931;-75
2021/03/27 03:21:54;;;;;;;;;;;;;;;7.07;68.82;101674.84;5060638;28;19925;-74
2021/03/27 03:24:24;;;;;;;;;;;;;;;6.96;69.01;101675.91;5055507;28;19929;-75
2021/03/27 03:27:03;;;;;;;;;;;;;;;6.99;68.86;101684.38;5072990;28;19924;-74
2021/03/27 03:29:33;;;;;;;;;;;;;;;7.00;68.38;101686.06;5072333;28;19935;-75
2021/03/27 03:32:04;;;;;;;;;;;;;;;7.04;68.84;101687.19;5071302;28;19947;-74
2021/03/27 03:34:50;;;;;;;;;;;;;;;7.12;68.98;101700.34;5071611;28;19939;-75
2021/03/27 03:37:28;;;;;;;;;;;;;;;7.13;67.59;101702.00;5055025;28;19924;-75
2021/03/27 03:40:00;;;;;;;;;;;;;;;6.88;68.87;101703.78;5071054;28;19929;-75
2021/03/27 03:42:42;;;;;;;;;;;;;;;6.77;69.30;101695.50;5038037;28;20284;-75
2021/03/27 03:45:13;;;;;;;;;;;;;;;6.96;68.81;101715.06;5070930;28;20335;-74
2021/03/27 03:47:45;;;;;;;;;;;;;;;6.66;69.19;101712.13;5070253;28;19924;-74
2021/03/27 03:50:15;;;;;;;;;;;;;;;6.53;69.77;101718.88;5068242;28;19924;-75
2021/03/27 03:53:02;;;;;;;;;;;;;;;6.67;69.49;101711.03;5072642;28;20384;-76
2021/03/27 03:55:33;;;;;;;;;;;;;;;6.74;69.68;101717.94;5072983;28;20424;-75
2021/03/27 03:58:18;;;;;;;;;;;;;;;6.69;69.47;101715.16;5063080;28;20376;-73
2021/03/27 04:00:51;;;;;;;;;;;;;;;6.83;69.57;101727.28;5052022;28;20229;-74
2021/03/27 04:03:32;;;;;;;;;;;;;;;7.07;67.80;101711.28;5050338;28;19925;-74
2021/03/27 04:06:02;;;;;;;;;;;;;;;7.22;67.61;101722.31;5052135;28;19935;-75
2021/03/27 04:08:38;;;;;;;;;;;;;;;6.94;67.94;101722.69;5051631;28;20292;-74
2021/03/27 04:11:32;;;;;;;;;;;;;;;7.00;68.79;101724.41;5035630;28;19925;-74
2021/03/27 04:13:59;;;;;;;;;;;;;;;6.81;68.65;101732.22;5050307;28;19929;-76
2021/03/27 04:16:26;;;;;;;;;;;;;;;6.79;68.94;101728.09;5050675;28;19924;-74
2021/03/27 04:18:54;;;;;;;;;;;;;;;6.62;69.94;101738.38;5052050;28;19924;-74
2021/03/27 04:21:22;;;;;;;;;;;;;;;6.77;68.72;101746.69;5057170;28;19928;-75
2021/03/27 04:23:49;;;;;;;;;;;;;;;6.74;68.70;101748.06;5037061;28;19925;-74
2021/03/27 04:26:30;;;;;;;;;;;;;;;6.81;68.66;101742.34;5036987;28;19948;-75
2021/03/27 04:29:02;;;;;;;;;;;;;;;6.68;68.89;101753.75;5070958;28;19924;-74
2021/03/27 04:31:45;;;;;;;;;;;;;;;6.68;69.60;101754.56;5054277;28;19925;-74
2021/03/27 04:34:26;;;;;;;;;;;;;;;6.69;68.87;101763.63;5038526;28;19947;-74
2021/03/27 04:36:59;;;;;;;;;;;;;;;6.58;69.59;101762.72;5054348;28;20273;-75
2021/03/27 04:39:31;;;;;;;;;;;;;;;6.63;69.38;101764.66;5071960;28;19931;-75
2021/03/27 04:42:01;;;;;;;;;;;;;;;6.59;69.68;101777.25;5070488;28;19928;-75
2021/03/27 04:44:28;;;;;;;;;;;;;;;6.85;68.45;101779.09;5034160;28;19951;-74
2021/03/27 04:46:56;;;;;;;;;;;;;;;6.57;69.49;101784.88;5086336;28;19925;-74
2021/03/27 04:49:31;;;;;;;;;;;;;;;6.44;70.18;101791.59;5053966;28;20595;-76
2021/03/27 04:52:01;;;;;;;;;;;;;;;6.55;69.74;101787.88;5053466;28;19932;-74
2021/03/27 04:54:31;;;;;;;;;;;;;;;6.55;69.68;101800.72;5053713;28;20375;-76
2021/03/27 04:57:07;;;;;;;;;;;;;;;6.54;69.79;101801.81;5071190;28;20427;-75
2021/03/27 04:59:45;;;;;;;;;;;;;;;6.57;70.11;101802.09;5044808;28;19929;-75
2021/03/27 05:02:13;;;;;;;;;;;;;;;6.57;69.74;101806.78;5050455;28;19932;-75
2021/03/27 05:04:58;;;;;;;;;;;;;;;6.44;70.06;101813.50;5016837;28;20396;-75
2021/03/27 05:07:27;;;;;;;;;;;;;;;6.41;69.48;101814.03;5033531;28;19924;-76
2021/03/27 05:10:11;;;;;;;;;;;;;;;6.29;70.17;101821.56;5017627;28;19925;-74
2021/03/27 05:12:56;;;;;;;;;;;;;;;6.51;69.61;101833.28;5016439;28;19925;-74
2021/03/27 05:15:23;;;;;;;;;;;;;;;6.22;70.42;101831.06;5034472;28;20246;-76
2021/03/27 05:18:08;;;;;;;;;;;;;;;6.49;70.03;101834.59;5017234;28;19925;-74
2021/03/27 05:20:36;;;;;;;;;;;;;;;6.57;69.78;101829.47;5049565;28;19932;-73
2021/03/27 05:23:02;;;;;;;;;;;;;;;6.46;70.35;101835.97;5070284;28;20300;-74
2021/03/27 05:25:29;;;;;;;;;;;;;;;6.43;70.10;101839.19;5052712;28;19932;-74
2021/03/27 05:28:05;;;;;;;;;;;;;;;6.31;70.43;101848.66;5052444;28;20300;-74
2021/03/27 05:30:38;;;;;;;;;;;;;;;6.25;70.99;101855.16;5071280;28;19925;-73
2021/03/27 05:33:07;;;;;;;;;;;;;;;6.25;70.58;101856.00;5053844;28;19924;-75
2021/03/27 05:35:41;;;;;;;;;;;;;;;6.13;70.98;101857.22;5051747;28;19932;-75
2021/03/27 05:38:08;;;;;;;;;;;;;;;6.30;71.46;101866.16;5037255;28;19925;-73
2021/03/27 05:40:55;;;;;;;;;;;;;;;6.60;69.82;101861.81;5071276;28;19929;-75
2021/03/27 05:43:31;;;;;;;;;;;;;;;6.62;69.36;101867.03;5052889;28;19924;-74
2021/03/27 05:46:16;;;;;;;;;;;;;;;6.67;68.79;101870.66;5070607;28;19936;-75
2021/03/27 05:49:01;;;;;;;;;;;;;;;6.46;69.17;101882.50;5053375;28;19924;-75
2021/03/27 05:51:49;;;;;;;;;;;;;;;6.42;69.56;101885.97;5071133;28;20311;-75
2021/03/27 05:54:35;;;;;;;;;;;;;;;6.43;69.91;101882.19;5052848;28;19924;-74
2021/03/27 05:57:07;;;;;;;;;;;;;;;6.36;70.27;101893.31;5070363;28;19935;-76
2021/03/27 05:59:34;;;;;;;;;;;;;;;6.38;70.51;101898.53;5052735;28;19924;-76
2021/03/27 06:02:19;;;;;;;;;;;;;;;6.48;69.65;101895.91;5054732;28;19933;-76
2021/03/27 06:04:46;;;;;;;;;;;;;;;6.34;70.82;101900.97;5054631;28;19936;-74
2021/03/27 06:07:25;;;;;;;;;;;;;;;6.48;69.88;101902.22;5052397;28;19925;-75
2021/03/27 06:10:00;;;;;;;;;;;;;;;6.48;69.37;101907.69;5054101;28;19929;-74
2021/03/27 06:12:41;;;;;;;;;;;;;;;6.68;68.75;101907.88;5054351;28;19932;-75
2021/03/27 06:15:29;;;;;;;;;;;;;;;6.61;69.19;101906.44;5036161;28;19936;-73
2021/03/27 06:18:20;;;;;;;;;;;;;;;6.58;69.23;101913.25;5037556;28;19925;-74
2021/03/27 06:20:57;;;;;;;;;;;;;;;6.56;69.60;101920.06;5057191;28;19925;-73
2021/03/27 06:23:36;;;;;;;;;;;;;;;6.45;69.71;101919.13;5041949;28;19929;-75
2021/03/27 06:26:16;;;;;;;;;;;;;;;6.45;69.91;101915.59;5046410;28;19925;-76
2021/03/27 06:29:02;;;;;;;;;;;;;;;6.57;69.52;101910.78;5046438;28;19932;-74
2021/03/27 06:31:47;;;;;;;;;;;;;;;6.60;68.48;101923.94;5058212;28;19925;-73
2021/03/27 06:34:14;;;;;;;;;;;;;;;6.64;68.71;101923.16;5053328;28;19925;-70
2021/03/27 06:36:59;;;;;;;;;;;;;;;7.05;67.83;101929.88;5037384;28;20300;-72
2021/03/27 06:39:26;;;;;;;;;;;;;;;6.88;67.90;101933.81;5054274;28;19931;-75
2021/03/27 06:41:53;;;;;;;;;;;;;;;6.90;67.73;101937.97;5036700;28;19928;-73
2021/03/27 06:44:32;;;;;;;;;;;;;;;6.85;67.96;101935.19;5036612;28;19931;-73
2021/03/27 06:47:02;;;;;;;;;;;;;;;6.72;67.85;101944.63;5054431;28;20380;-73
2021/03/27 06:49:40;;;;;;;;;;;;;;;6.85;68.20;101940.66;5019947;28;20396;-74
2021/03/27 06:52:38;;;;;;;;;;;;;;;6.68;68.27;101940.75;5006777;28;20291;-75
2021/03/27 06:55:11;;;;;;;;;;;;;;;6.96;68.08;101945.13;5035273;28;19929;-74
2021/03/27 06:57:51;;;;;;;;;;;;;;;7.09;67.17;101946.63;5052440;28;19924;-75
2021/03/27 07:00:27;;;;;;;;;;;;;;;7.20;66.94;101956.59;5032309;28;19929;-74
2021/03/27 07:02:53;;;;;;;;;;;;;;;7.27;66.38;101938.00;5033697;28;20300;-76
2021/03/27 07:05:23;;;;;;;;;;;;;;;6.98;66.89;101948.44;5034050;28;19936;-76
2021/03/27 07:08:12;;;;;;;;;;;;;;;6.81;67.52;101948.56;5034562;28;19925;-74
2021/03/27 07:10:57;;;;;;;;;;;;;;;6.91;67.83;101960.66;5031515;28;20317;-76
2021/03/27 07:13:47;;;;;;;;;;;;;;;6.85;67.61;101962.56;5015436;28;19932;-76
2021/03/27 07:16:43;;;;;;;;;;;;;;;7.02;66.79;101962.44;5031522;28;19948;-74
2021/03/27 07:19:19;;;;;;;;;;;;;;;7.19;66.72;101969.44;4993645;28;19926;-75
2021/03/27 07:22:11;;;;;;;;;;;;;;;7.19;66.62;101971.34;5010959;28;19925;-75
2021/03/27 07:24:56;;;;;;;;;;;;;;;6.99;66.95;101977.47;5011432;28;19932;-75
2021/03/27 07:27:42;;;;;;;;;;;;;;;7.23;66.22;101977.97;5011334;28;19929;-74
2021/03/27 07:30:09;;;;;;;;;;;;;;;7.34;66.15;101982.47;4992214;28;19930;-75
2021/03/27 07:32:54;;;;;;;;;;;;;;;7.50;66.21;101995.19;5011057;28;19933;-74
2021/03/27 07:35:40;;;;;;;;;;;;;;;7.25;66.88;102000.47;5010692;28;20309;-75
2021/03/27 07:38:25;;;;;;;;;;;;;;;7.41;66.48;102005.00;4977985;28;19930;-76
2021/03/27 07:41:10;;;;;;;;;;;;;;;7.55;65.52;102003.47;4976055;28;20448;-74
2021/03/27 07:43:55;;;;;;;;;;;;;;;7.69;65.58;102012.88;5000568;28;19965;-74
2021/03/27 07:46:21;;;;;;;;;;;;;;;7.53;65.40;102009.19;5003777;28;19949;-75
2021/03/27 07:48:56;;;;;;;;;;;;;;;7.78;65.54;102016.81;4994514;28;19947;-76
2021/03/27 07:51:31;;;;;;;;;;;;;;;7.69;64.80;102012.88;4994570;28;19925;-75
2021/03/27 07:54:24;;;;;;;;;;;;;;;7.95;65.40;102014.72;4977445;28;20651;-75
2021/03/27 07:57:00;;;;;;;;;;;;;;;7.84;64.83;102010.28;5029890;28;19979;-75
2021/03/27 07:59:45;;;;;;;;;;;;;;;7.71;65.53;102011.53;5034966;28;19925;-75
2021/03/27 08:02:30;;;;;;;;;;;;;;;7.74;65.22;102023.91;5061111;28;19925;-74
2021/03/27 08:05:27;;;;;;;;;;;;;;;7.86;64.65;102021.81;5042185;28;19932;-75
2021/03/27 08:08:11;;;;;;;;;;;;;;;8.10;63.90;102033.22;5052283;28;20399;-74
2021/03/27 08:10:56;;;;;;;;;;;;;;;8.17;63.37;102028.31;5008077;28;19940;-74
2021/03/27 08:13:31;;;;;;;;;;;;;;;8.08;63.17;102036.22;5032739;28;19925;-75
2021/03/27 08:16:05;;;;;;;;;;;;;;;8.05;63.47;102034.00;5032861;28;19936;-76
2021/03/27 08:18:46;;;;;;;;;;;;;;;8.26;63.71;102046.81;5044528;28;19932;-74
2021/03/27 08:21:19;;;;;;;;;;;;;;;8.37;63.27;102053.19;5050318;28;19948;-75
2021/03/27 08:23:53;;;;;;;;;;;;;;;8.37;62.48;102051.25;5066518;28;20411;-73
2021/03/27 08:26:38;;;;;;;;;;;;;;;8.06;63.73;102057.59;5053096;28;20399;-74
2021/03/27 08:29:30;;;;;;;;;;;;;;;8.13;63.74;102063.69;5054634;28;19935;-75
2021/03/27 08:32:29;;;;;;;;;;;;;;;8.22;63.35;102066.75;5057355;28;19925;-75
2021/03/27 08:35:15;;;;;;;;;;;;;;;8.28;63.81;102066.56;5063470;28;19924;-75
2021/03/27 08:38:01;;;;;;;;;;;;;;;8.50;63.64;102063.66;5091934;28;20276;-74
2021/03/27 08:40:46;;;;;;;;;;;;;;;8.73;62.58;102071.47;5056113;28;19925;-74
2021/03/27 08:43:23;;;;;;;;;;;;;;;8.73;62.65;102075.06;5021035;28;19931;-75
2021/03/27 08:45:50;;;;;;;;;;;;;;;8.98;62.20;102074.31;5045183;28;19940;-74
2021/03/27 08:48:16;;;;;;;;;;;;;;;9.27;62.60;102088.41;5066422;28;19939;-79
2021/03/27 08:51:01;;;;;;;;;;;;;;;8.98;60.65;102086.13;5071569;28;19932;-77
2021/03/27 08:53:30;;;;;;;;;;;;;;;8.88;61.99;102105.34;5053220;28;19925;-74
2021/03/27 08:55:57;;;;;;;;;;;;;;;8.94;60.68;102107.00;5060622;28;20008;-75
2021/03/27 08:58:36;;;;;;;;;;;;;;;8.92;61.48;102106.47;5059246;28;19929;-75
2021/03/27 09:01:20;;;;;;;;;;;;;;;9.41;60.91;102106.03;5052406;28;20369;-75
2021/03/27 09:04:05;;;;;;;;;;;;;;;9.21;60.05;102105.97;5051812;28;19932;-76
2021/03/27 09:06:41;;;;;;;;;;;;;;;9.38;60.09;102121.16;5033860;28;19925;-76
2021/03/27 09:09:47;;;;;;;;;;;;;;;9.28;60.02;102131.28;5072090;28;19924;-74
2021/03/27 09:12:28;;;;;;;;;;;;;;;9.56;59.73;102122.56;5057627;28;19925;-75
2021/03/27 09:15:04;;;;;;;;;;;;;;;9.45;59.04;102145.66;5067285;28;19939;-75
2021/03/27 09:17:51;;;;;;;;;;;;;;;9.23;59.45;102142.28;5051824;28;19925;-75
2021/03/27 09:20:37;;;;;;;;;;;;;;;9.26;59.68;102150.81;5007385;28;19925;-78
2021/03/27 09:23:06;;;;;;;;;;;;;;;9.75;59.70;102151.22;4999048;28;19926;-75
2021/03/27 09:25:51;;;;;;;;;;;;;;;9.71;59.14;102153.69;5020133;28;19933;-74
2021/03/27 09:28:47;;;;;;;;;;;;;;;9.63;58.99;102164.41;5010438;28;19933;-74
2021/03/27 09:31:21;;;;;;;;;;;;;;;9.37;59.34;102159.94;4973081;28;20397;-76
2021/03/27 09:34:23;;;;;;;;;;;;;;;9.44;58.99;102152.25;4973616;28;19926;-76
2021/03/27 09:37:08;;;;;;;;;;;;;;;9.30;58.85;102162.09;4969166;28;19933;-76
2021/03/27 09:40:06;;;;;;;;;;;;;;;9.51;58.58;102172.06;4973563;28;19933;-77
2021/03/27 09:42:37;;;;;;;;;;;;;;;9.43;58.30;102162.41;4900493;29;19931;-77
2021/03/27 09:45:15;;;;;;;;;;;;;;;9.34;58.28;102160.47;4916513;29;19927;-78
2021/03/27 09:47:48;;;;;;;;;;;;;;;9.69;57.23;102163.31;4916861;29;19927;-79
2021/03/27 09:50:21;;;;;;;;;;;;;;;10.03;57.54;102175.47;4919373;29;20414;-76
2021/03/27 09:52:52;;;;;;;;;;;;;;;9.77;57.67;102171.88;4900815;29;19933;-76
2021/03/27 09:55:36;;;;;;;;;;;;;;;10.01;56.23;102170.22;4917081;29;19935;-78
2021/03/27 09:58:24;;;;;;;;;;;;;;;10.21;56.54;102166.69;4913769;29;20615;-78
2021/03/27 10:00:55;;;;;;;;;;;;;;;10.34;55.51;102173.59;4924226;29;19927;-77
2021/03/27 10:03:43;;;;;;;;;;;;;;;10.15;56.26;102187.88;4905679;29;19927;-76
2021/03/27 10:06:09;;;;;;;;;;;;;;;9.85;55.24;102187.03;4915464;29;19926;-76
2021/03/27 10:08:46;;;;;;;;;;;;;;;9.70;55.99;102181.47;4967256;28;19933;-73
2021/03/27 10:11:12;;;;;;;;;;;;;;;9.78;55.10;102192.75;4997911;28;19945;-75
2021/03/27 10:13:46;;;;;;;;;;;;;;;9.69;53.81;102196.34;4980967;28;19930;-74
2021/03/27 10:16:16;;;;;;;;;;;;;;;9.68;53.60;102195.50;4989315;28;20429;-76
2021/03/27 10:18:45;;;;;;;;;;;;;;;9.76;54.11;102194.16;4996930;28;19966;-76
2021/03/27 10:21:21;;;;;;;;;;;;;;;9.99;53.82;102201.88;5018560;28;19925;-74
2021/03/27 10:24:10;;;;;;;;;;;;;;;10.14;54.82;102191.75;5006388;28;19925;-74
2021/03/27 10:26:43;;;;;;;;;;;;;;;10.75;53.41;102195.28;5011998;28;20340;-74
2021/03/27 10:29:10;;;;;;;;;;;;;;;10.95;52.41;102202.66;5030822;28;19925;-75
2021/03/27 10:31:39;;;;;;;;;;;;;;;10.62;52.00;102206.88;5046893;28;20280;-73
2021/03/27 10:34:06;;;;;;;;;;;;;;;10.74;50.59;102209.34;5052202;28;19929;-74
2021/03/27 10:36:40;;;;;;;;;;;;;;;10.73;51.31;102205.75;5070061;28;19929;-75
2021/03/27 10:39:20;;;;;;;;;;;;;;;10.96;52.19;102199.66;5068418;28;19952;-76
2021/03/27 10:41:50;;;;;;;;;;;;;;;10.87;51.04;102211.50;5089079;28;19932;-75
2021/03/27 10:44:25;;;;;;;;;;;;;;;10.65;52.13;102211.81;5071367;28;19924;-77
2021/03/27 10:47:10;;;;;;;;;;;;;;;11.05;52.70;102213.69;5031534;28;19932;-77
2021/03/27 10:49:39;;;;;;;;;;;;;;;11.43;50.50;102213.00;5041878;28;19925;-76
2021/03/27 10:52:06;;;;;;;;;;;;;;;11.28;50.16;102208.34;5051846;28;19936;-77
2021/03/27 10:54:36;;;;;;;;;;;;;;;11.10;50.27;102197.97;5067593;28;19943;-78
2021/03/27 10:57:25;;;;;;;;;;;;;;;10.68;52.11;102200.25;5070127;28;19932;-77
2021/03/27 11:00:01;;;;;;;;;;;;;;;10.69;51.89;102198.31;5071726;28;19925;-72
2021/03/27 11:02:47;;;;;;;;;;;;;;;10.72;52.02;102206.03;5066711;28;20311;-76
2021/03/27 11:05:39;;;;;;;;;;;;;;;10.70;51.68;102200.81;5072399;28;19948;-75
2021/03/27 11:08:24;;;;;;;;;;;;;;;10.64;51.97;102203.84;5060718;28;19933;-75
2021/03/27 11:11:05;;;;;;;;;;;;;;;10.84;52.03;102206.56;5048542;28;19931;-76
2021/03/27 11:13:44;;;;;;;;;;;;;;;11.09;51.15;102204.56;5057019;28;19924;-75
2021/03/27 11:16:15;;;;;;;;;;;;;;;11.10;50.91;102206.22;5041792;28;20680;-76
2021/03/27 11:18:57;;;;;;;;;;;;;;;11.55;50.10;102207.13;5053262;28;19925;-76
2021/03/27 11:21:28;;;;;;;;;;;;;;;11.26;49.90;102210.56;5071346;28;19925;-76
2021/03/27 11:24:05;;;;;;;;;;;;;;;11.29;50.15;102211.94;5073124;28;19924;-75
2021/03/27 11:26:39;;;;;;;;;;;;;;;11.28;49.91;102211.13;5088771;28;19928;-73
2021/03/27 11:29:28;;;;;;;;;;;;;;;11.46;49.80;102209.66;5070054;28;19933;-75
2021/03/27 11:32:04;;;;;;;;;;;;;;;11.60;49.32;102207.94;5041787;28;19924;-74
2021/03/27 11:34:34;;;;;;;;;;;;;;;11.39;49.73;102214.66;5059623;28;19925;-74
2021/03/27 11:37:01;;;;;;;;;;;;;;;11.49;49.24;102211.84;5037121;28;20223;-75
2021/03/27 11:39:29;;;;;;;;;;;;;;;11.38;49.55;102209.44;5047862;28;20269;-77
2021/03/27 11:42:08;;;;;;;;;;;;;;;11.48;49.03;102212.97;5073052;28;19947;-78
2021/03/27 11:44:40;;;;;;;;;;;;;;;11.55;48.87;102207.13;5026929;28;19924;-72
2021/03/27 11:47:23;;;;;;;;;;;;;;;11.80;47.55;102212.56;5050208;28;19925;-73
2021/03/27 11:50:06;;;;;;;;;;;;;;;11.57;47.77;102221.47;5054509;28;19935;-75
2021/03/27 11:52:37;;;;;;;;;;;;;;;11.07;49.01;102228.81;5037187;28;19928;-76
2021/03/27 11:55:04;;;;;;;;;;;;;;;11.16;49.66;102234.59;5072212;28;19931;-76
2021/03/27 11:57:45;;;;;;;;;;;;;;;11.32;49.47;102231.50;5071027;28;20307;-76
2021/03/27 12:03:25;;;;;;;;;;;;;;;11.60;47.75;102235.53;4990490;28;19938;-76
2021/03/27 12:06:06;;;;;;;;;;;;;;;11.40;48.50;102234.81;4974674;28;20313;-76
2021/03/27 12:08:41;;;;;;;;;;;;;;;11.34;47.76;102247.78;4993905;28;19929;-74
2021/03/27 12:11:16;;;;;;;;;;;;;;;11.33;48.29;102229.59;4975440;28;19941;-77
2021/03/27 12:13:43;;;;;;;;;;;;;;;11.25;47.64;102239.25;4967980;28;19934;-74
2021/03/27 12:16:16;;;;;;;;;;;;;;;11.32;48.41;102230.69;4989215;28;19926;-74
2021/03/27 12:19:02;;;;;;;;;;;;;;;11.42;48.35;102229.84;4988559;28;19937;-73
2021/03/27 12:21:29;;;;;;;;;;;;;;;11.40;48.62;102243.06;4986710;28;19978;-75
2021/03/27 12:24:05;;;;;;;;;;;;;;;11.24;48.91;102247.81;4973505;28;19929;-74
2021/03/27 12:26:52;;;;;;;;;;;;;;;11.33;49.27;102252.47;4974486;28;20412;-75
2021/03/27 12:29:21;;;;;;;;;;;;;;;11.46;49.72;102247.44;4984261;28;22010;-78
2021/03/27 12:32:00;;;;;;;;;;;;;;;11.96;48.50;102234.25;4988348;28;19933;-76
2021/03/27 12:34:26;;;;;;;;;;;;;;;12.42;47.81;102238.34;4958055;28;20399;-75
2021/03/27 12:37:00;;;;;;;;;;;;;;;12.30;47.06;102237.06;4990178;28;20324;-76
2021/03/27 12:39:30;;;;;;;;;;;;;;;12.03;48.04;102231.19;4976862;28;20384;-75
2021/03/27 12:41:59;;;;;;;;;;;;;;;12.41;47.77;102224.81;5070987;28;19936;-71
2021/03/27 12:44:26;;;;;;;;;;;;;;;12.56;46.99;102218.31;5017488;28;19943;-73
2021/03/27 12:47:01;;;;;;;;;;;;;;;12.68;47.49;102224.28;5070953;28;19925;-75
2021/03/27 12:49:34;;;;;;;;;;;;;;;12.25;45.99;102231.56;5050803;28;20364;-74
2021/03/27 12:52:13;;;;;;;;;;;;;;;12.34;46.68;102235.38;5050577;28;20390;-75
2021/03/27 12:54:48;;;;;;;;;;;;;;;12.38;46.43;102239.19;5053437;28;19936;-76
2021/03/27 12:57:21;;;;;;;;;;;;;;;12.48;47.07;102230.84;5051871;28;19931;-76
2021/03/27 13:00:23;;;;;;;;;;;;;;;12.58;46.76;102229.91;5066286;28;20377;-77
2021/03/27 13:02:51;;;;;;;;;;;;;;;12.61;46.65;102224.63;5070033;28;19940;-76
2021/03/27 13:05:17;;;;;;;;;;;;;;;12.58;46.48;102219.69;5051972;28;19924;-74
2021/03/27 13:07:46;;;;;;;;;;;;;;;12.52;46.16;102220.84;5068121;28;20003;-76
2021/03/27 13:10:31;;;;;;;;;;;;;;;12.54;46.71;102228.84;5087980;28;21327;-76
2021/03/27 13:13:17;;;;;;;;;;;;;;;12.76;45.51;102223.69;5072191;28;19931;-74
2021/03/27 13:15:51;;;;;;;;;;;;;;;12.57;44.92;102222.75;5074093;28;19924;-74
2021/03/27 13:18:39;;;;;;;;;;;;;;;12.76;44.82;102221.72;5038334;28;19924;-76
2021/03/27 13:21:21;;;;;;;;;;;;;;;12.95;44.04;102219.88;5050709;28;19932;-75
2021/03/27 13:24:08;;;;;;;;;;;;;;;13.11;44.29;102224.16;5024316;28;19924;-77
2021/03/27 13:26:35;;;;;;;;;;;;;;;12.96;44.50;102223.44;5041834;28;20308;-69
2021/03/27 13:29:33;;;;;;;;;;;;;;;13.24;44.40;102223.44;5041269;28;19932;-76
2021/03/27 13:32:01;;;;;;;;;;;;;;;13.66;43.25;102213.50;5073887;28;20492;-68
2021/03/27 13:34:38;;;;;;;;;;;;;;;13.88;42.84;102225.66;5056269;28;19932;-75
2021/03/27 13:37:09;;;;;;;;;;;;;;;13.27;42.48;102220.09;4997435;28;19930;-73